sensor_id;sensor_type;location;lat;lon;timestamp;P1;durP1;ratioP1;P2;durP2;ratioP2
35847;SDS011;22332;51.954;20.118;2023-07-20T00:00:58;7.30;;;3.50;;
35847;SDS011;22332;51.954;20.118;2023-07-20T00:04:09;6.00;;;3.50;;
35847;SDS011;22332;51.954;20.118;2023-07-20T00:07:15;5.40;;;3.60;;
35847;SDS011;22332;51.954;20.118;2023-07-20T00:10:21;4.80;;;2.90;;
35847;SDS011;22332;51.954;20.118;2023-07-20T00:13:26;4.20;;;3.10;;
35847;SDS011;22332;51.954;20.118;2023-07-20T00:16:32;4.00;;;3.30;;
35847;SDS011;22332;51.954;20.118;2023-07-20T00:19:38;4.80;;;2.90;;
35847;SDS011;22332;51.954;20.118;2023-07-20T00:22:43;4.50;;;2.90;;
35847;SDS011;22332;51.954;20.118;2023-07-20T00:25:48;4.60;;;2.80;;
35847;SDS011;22332;51.954;20.118;2023-07-20T00:28:54;3.70;;;2.90;;
35847;SDS011;22332;51.954;20.118;2023-07-20T00:31:59;4.30;;;2.60;;
35847;SDS011;22332;51.954;20.118;2023-07-20T00:35:08;5.90;;;3.00;;
35847;SDS011;22332;51.954;20.118;2023-07-20T00:38:13;4.30;;;2.90;;
35847;SDS011;22332;51.954;20.118;2023-07-20T00:41:19;3.90;;;3.00;;
35847;SDS011;22332;51.954;20.118;2023-07-20T00:44:25;5.70;;;3.20;;
35847;SDS011;22332;51.954;20.118;2023-07-20T00:47:30;4.50;;;3.20;;
35847;SDS011;22332;51.954;20.118;2023-07-20T00:50:36;4.10;;;2.80;;
35847;SDS011;22332;51.954;20.118;2023-07-20T00:53:45;4.10;;;2.70;;
35847;SDS011;22332;51.954;20.118;2023-07-20T00:56:51;3.80;;;2.70;;
35847;SDS011;22332;51.954;20.118;2023-07-20T00:59:58;3.20;;;2.50;;
35847;SDS011;22332;51.954;20.118;2023-07-20T01:03:04;3.10;;;2.50;;
35847;SDS011;22332;51.954;20.118;2023-07-20T01:06:12;4.30;;;2.90;;
35847;SDS011;22332;51.954;20.118;2023-07-20T01:09:26;4.90;;;2.90;;
35847;SDS011;22332;51.954;20.118;2023-07-20T01:12:40;3.60;;;3.00;;
35847;SDS011;22332;51.954;20.118;2023-07-20T01:15:50;4.30;;;3.70;;
35847;SDS011;22332;51.954;20.118;2023-07-20T01:19:00;4.60;;;3.40;;
35847;SDS011;22332;51.954;20.118;2023-07-20T01:22:09;4.80;;;2.90;;
35847;SDS011;22332;51.954;20.118;2023-07-20T01:25:32;4.70;;;2.90;;
35847;SDS011;22332;51.954;20.118;2023-07-20T01:28:57;4.60;;;3.20;;
35847;SDS011;22332;51.954;20.118;2023-07-20T01:32:24;4.10;;;3.00;;
35847;SDS011;22332;51.954;20.118;2023-07-20T01:35:31;4.60;;;3.30;;
35847;SDS011;22332;51.954;20.118;2023-07-20T01:38:38;4.10;;;2.60;;
35847;SDS011;22332;51.954;20.118;2023-07-20T01:41:48;3.70;;;2.60;;
35847;SDS011;22332;51.954;20.118;2023-07-20T01:44:54;5.50;;;2.80;;
35847;SDS011;22332;51.954;20.118;2023-07-20T01:48:00;6.90;;;2.90;;
35847;SDS011;22332;51.954;20.118;2023-07-20T01:51:06;3.40;;;3.00;;
35847;SDS011;22332;51.954;20.118;2023-07-20T01:54:12;4.20;;;3.00;;
35847;SDS011;22332;51.954;20.118;2023-07-20T01:57:17;3.90;;;2.70;;
35847;SDS011;22332;51.954;20.118;2023-07-20T02:00:23;3.80;;;2.80;;
35847;SDS011;22332;51.954;20.118;2023-07-20T02:03:29;3.80;;;2.90;;
35847;SDS011;22332;51.954;20.118;2023-07-20T02:06:34;4.90;;;3.80;;
35847;SDS011;22332;51.954;20.118;2023-07-20T02:09:41;5.70;;;3.80;;
35847;SDS011;22332;51.954;20.118;2023-07-20T02:12:46;6.30;;;4.10;;
35847;SDS011;22332;51.954;20.118;2023-07-20T02:15:52;9.20;;;4.50;;
35847;SDS011;22332;51.954;20.118;2023-07-20T02:18:58;6.70;;;4.20;;
35847;SDS011;22332;51.954;20.118;2023-07-20T02:22:04;6.30;;;3.80;;
35847;SDS011;22332;51.954;20.118;2023-07-20T02:25:10;4.70;;;3.50;;
35847;SDS011;22332;51.954;20.118;2023-07-20T02:28:15;4.30;;;3.40;;
35847;SDS011;22332;51.954;20.118;2023-07-20T02:31:21;4.30;;;3.50;;
35847;SDS011;22332;51.954;20.118;2023-07-20T02:34:26;4.80;;;3.40;;
35847;SDS011;22332;51.954;20.118;2023-07-20T02:37:32;5.60;;;3.30;;
35847;SDS011;22332;51.954;20.118;2023-07-20T02:40:37;5.50;;;3.50;;
35847;SDS011;22332;51.954;20.118;2023-07-20T02:43:43;4.50;;;3.30;;
35847;SDS011;22332;51.954;20.118;2023-07-20T02:46:48;5.00;;;3.20;;
35847;SDS011;22332;51.954;20.118;2023-07-20T02:49:54;6.60;;;3.60;;
35847;SDS011;22332;51.954;20.118;2023-07-20T02:52:59;4.10;;;3.20;;
35847;SDS011;22332;51.954;20.118;2023-07-20T02:56:05;3.90;;;3.20;;
35847;SDS011;22332;51.954;20.118;2023-07-20T02:59:10;4.30;;;3.00;;
35847;SDS011;22332;51.954;20.118;2023-07-20T03:02:16;4.00;;;3.20;;
35847;SDS011;22332;51.954;20.118;2023-07-20T03:05:21;4.20;;;3.40;;
35847;SDS011;22332;51.954;20.118;2023-07-20T03:08:28;4.90;;;3.10;;
35847;SDS011;22332;51.954;20.118;2023-07-20T03:11:33;7.70;;;3.90;;
35847;SDS011;22332;51.954;20.118;2023-07-20T03:14:39;5.80;;;3.70;;
35847;SDS011;22332;51.954;20.118;2023-07-20T03:17:45;5.90;;;4.40;;
35847;SDS011;22332;51.954;20.118;2023-07-20T03:20:50;5.90;;;4.20;;
35847;SDS011;22332;51.954;20.118;2023-07-20T03:23:56;6.50;;;3.90;;
35847;SDS011;22332;51.954;20.118;2023-07-20T03:27:02;5.80;;;4.00;;
35847;SDS011;22332;51.954;20.118;2023-07-20T03:30:08;5.60;;;3.90;;
35847;SDS011;22332;51.954;20.118;2023-07-20T03:33:15;5.10;;;3.90;;
35847;SDS011;22332;51.954;20.118;2023-07-20T03:36:20;4.60;;;4.10;;
35847;SDS011;22332;51.954;20.118;2023-07-20T03:39:26;6.10;;;4.40;;
35847;SDS011;22332;51.954;20.118;2023-07-20T03:42:32;6.10;;;4.60;;
35847;SDS011;22332;51.954;20.118;2023-07-20T03:45:37;6.20;;;4.50;;
35847;SDS011;22332;51.954;20.118;2023-07-20T03:48:43;5.60;;;4.20;;
35847;SDS011;22332;51.954;20.118;2023-07-20T03:51:49;7.30;;;3.80;;
35847;SDS011;22332;51.954;20.118;2023-07-20T03:54:54;5.30;;;3.90;;
35847;SDS011;22332;51.954;20.118;2023-07-20T03:58:00;5.20;;;4.00;;
35847;SDS011;22332;51.954;20.118;2023-07-20T04:01:05;5.90;;;4.20;;
35847;SDS011;22332;51.954;20.118;2023-07-20T04:04:13;5.50;;;4.40;;
35847;SDS011;22332;51.954;20.118;2023-07-20T04:07:19;7.50;;;4.80;;
35847;SDS011;22332;51.954;20.118;2023-07-20T04:10:25;7.50;;;4.40;;
35847;SDS011;22332;51.954;20.118;2023-07-20T04:13:31;5.10;;;4.00;;
35847;SDS011;22332;51.954;20.118;2023-07-20T04:16:37;6.80;;;4.70;;
35847;SDS011;22332;51.954;20.118;2023-07-20T04:19:42;4.60;;;4.10;;
35847;SDS011;22332;51.954;20.118;2023-07-20T04:22:48;6.00;;;4.40;;
35847;SDS011;22332;51.954;20.118;2023-07-20T04:25:55;5.90;;;4.60;;
35847;SDS011;22332;51.954;20.118;2023-07-20T04:29:00;6.80;;;4.80;;
35847;SDS011;22332;51.954;20.118;2023-07-20T04:32:10;8.80;;;4.50;;
35847;SDS011;22332;51.954;20.118;2023-07-20T04:35:44;5.60;;;4.00;;
35847;SDS011;22332;51.954;20.118;2023-07-20T04:38:54;6.60;;;4.50;;
35847;SDS011;22332;51.954;20.118;2023-07-20T04:42:00;5.30;;;4.00;;
35847;SDS011;22332;51.954;20.118;2023-07-20T04:45:07;5.30;;;4.10;;
35847;SDS011;22332;51.954;20.118;2023-07-20T04:48:14;7.60;;;4.70;;
35847;SDS011;22332;51.954;20.118;2023-07-20T04:51:27;7.60;;;4.70;;
35847;SDS011;22332;51.954;20.118;2023-07-20T04:54:33;6.90;;;4.60;;
35847;SDS011;22332;51.954;20.118;2023-07-20T04:57:39;7.10;;;4.10;;
35847;SDS011;22332;51.954;20.118;2023-07-20T05:00:46;5.90;;;4.50;;
35847;SDS011;22332;51.954;20.118;2023-07-20T05:03:53;6.60;;;4.60;;
35847;SDS011;22332;51.954;20.118;2023-07-20T05:06:59;6.00;;;4.90;;
35847;SDS011;22332;51.954;20.118;2023-07-20T05:10:05;5.30;;;4.40;;
35847;SDS011;22332;51.954;20.118;2023-07-20T05:13:12;5.70;;;4.50;;
35847;SDS011;22332;51.954;20.118;2023-07-20T05:16:17;6.70;;;4.60;;
35847;SDS011;22332;51.954;20.118;2023-07-20T05:19:23;6.50;;;4.80;;
35847;SDS011;22332;51.954;20.118;2023-07-20T05:22:29;5.70;;;4.80;;
35847;SDS011;22332;51.954;20.118;2023-07-20T05:25:36;6.40;;;5.30;;
35847;SDS011;22332;51.954;20.118;2023-07-20T05:28:41;5.80;;;4.70;;
35847;SDS011;22332;51.954;20.118;2023-07-20T05:31:47;6.10;;;4.40;;
35847;SDS011;22332;51.954;20.118;2023-07-20T05:34:52;6.10;;;4.60;;
35847;SDS011;22332;51.954;20.118;2023-07-20T05:37:58;7.40;;;5.10;;
35847;SDS011;22332;51.954;20.118;2023-07-20T05:41:03;6.20;;;4.80;;
35847;SDS011;22332;51.954;20.118;2023-07-20T05:44:12;7.10;;;5.50;;
35847;SDS011;22332;51.954;20.118;2023-07-20T05:47:18;7.00;;;4.90;;
35847;SDS011;22332;51.954;20.118;2023-07-20T05:50:24;6.20;;;4.90;;
35847;SDS011;22332;51.954;20.118;2023-07-20T05:53:30;7.80;;;4.90;;
35847;SDS011;22332;51.954;20.118;2023-07-20T05:56:36;9.20;;;5.30;;
35847;SDS011;22332;51.954;20.118;2023-07-20T05:59:41;7.20;;;5.10;;
35847;SDS011;22332;51.954;20.118;2023-07-20T06:02:47;6.00;;;5.40;;
35847;SDS011;22332;51.954;20.118;2023-07-20T06:05:57;6.20;;;4.90;;
35847;SDS011;22332;51.954;20.118;2023-07-20T06:09:04;6.70;;;4.60;;
35847;SDS011;22332;51.954;20.118;2023-07-20T06:12:12;5.40;;;4.70;;
35847;SDS011;22332;51.954;20.118;2023-07-20T06:15:27;5.90;;;5.30;;
35847;SDS011;22332;51.954;20.118;2023-07-20T06:18:35;7.50;;;5.10;;
35847;SDS011;22332;51.954;20.118;2023-07-20T06:21:40;6.10;;;5.00;;
35847;SDS011;22332;51.954;20.118;2023-07-20T06:24:47;6.70;;;4.60;;
35847;SDS011;22332;51.954;20.118;2023-07-20T06:27:54;5.90;;;4.50;;
35847;SDS011;22332;51.954;20.118;2023-07-20T06:31:01;5.90;;;5.00;;
35847;SDS011;22332;51.954;20.118;2023-07-20T06:34:07;6.70;;;5.20;;
35847;SDS011;22332;51.954;20.118;2023-07-20T06:37:12;5.60;;;5.00;;
35847;SDS011;22332;51.954;20.118;2023-07-20T06:40:18;7.10;;;5.00;;
35847;SDS011;22332;51.954;20.118;2023-07-20T06:43:25;6.10;;;4.30;;
35847;SDS011;22332;51.954;20.118;2023-07-20T06:46:30;6.80;;;4.60;;
35847;SDS011;22332;51.954;20.118;2023-07-20T06:49:36;5.70;;;4.00;;
35847;SDS011;22332;51.954;20.118;2023-07-20T06:52:41;6.20;;;3.50;;
35847;SDS011;22332;51.954;20.118;2023-07-20T06:55:47;7.30;;;4.80;;
35847;SDS011;22332;51.954;20.118;2023-07-20T06:58:52;6.00;;;4.90;;
35847;SDS011;22332;51.954;20.118;2023-07-20T07:01:58;4.70;;;3.70;;
35847;SDS011;22332;51.954;20.118;2023-07-20T07:05:04;4.80;;;3.10;;
35847;SDS011;22332;51.954;20.118;2023-07-20T07:08:11;5.80;;;3.90;;
35847;SDS011;22332;51.954;20.118;2023-07-20T07:11:16;4.80;;;3.20;;
35847;SDS011;22332;51.954;20.118;2023-07-20T07:14:22;5.30;;;4.40;;
35847;SDS011;22332;51.954;20.118;2023-07-20T07:17:27;4.80;;;4.20;;
35847;SDS011;22332;51.954;20.118;2023-07-20T07:20:34;6.90;;;4.40;;
35847;SDS011;22332;51.954;20.118;2023-07-20T07:23:39;6.40;;;4.10;;
35847;SDS011;22332;51.954;20.118;2023-07-20T07:26:45;4.20;;;3.70;;
35847;SDS011;22332;51.954;20.118;2023-07-20T07:29:51;5.30;;;3.80;;
35847;SDS011;22332;51.954;20.118;2023-07-20T07:32:57;4.40;;;3.80;;
35847;SDS011;22332;51.954;20.118;2023-07-20T07:36:03;4.50;;;3.70;;
35847;SDS011;22332;51.954;20.118;2023-07-20T07:39:09;4.40;;;4.00;;
35847;SDS011;22332;51.954;20.118;2023-07-20T07:42:14;5.70;;;3.60;;
35847;SDS011;22332;51.954;20.118;2023-07-20T07:45:21;3.90;;;3.40;;
35847;SDS011;22332;51.954;20.118;2023-07-20T07:48:26;4.00;;;3.30;;
35847;SDS011;22332;51.954;20.118;2023-07-20T07:51:32;5.70;;;3.90;;
35847;SDS011;22332;51.954;20.118;2023-07-20T07:54:37;4.40;;;3.60;;
35847;SDS011;22332;51.954;20.118;2023-07-20T07:57:43;5.30;;;4.60;;
35847;SDS011;22332;51.954;20.118;2023-07-20T08:00:50;5.40;;;4.30;;
35847;SDS011;22332;51.954;20.118;2023-07-20T08:03:55;4.70;;;4.00;;
35847;SDS011;22332;51.954;20.118;2023-07-20T08:07:04;5.00;;;3.90;;
35847;SDS011;22332;51.954;20.118;2023-07-20T08:10:10;6.40;;;4.50;;
35847;SDS011;22332;51.954;20.118;2023-07-20T08:13:16;5.00;;;4.40;;
35847;SDS011;22332;51.954;20.118;2023-07-20T08:16:21;6.30;;;4.80;;
35847;SDS011;22332;51.954;20.118;2023-07-20T08:19:27;14.20;;;5.90;;
35847;SDS011;22332;51.954;20.118;2023-07-20T08:22:33;13.10;;;7.00;;
35847;SDS011;22332;51.954;20.118;2023-07-20T08:25:38;5.60;;;4.60;;
35847;SDS011;22332;51.954;20.118;2023-07-20T08:28:46;10.30;;;5.60;;
35847;SDS011;22332;51.954;20.118;2023-07-20T08:31:52;7.70;;;4.50;;
35847;SDS011;22332;51.954;20.118;2023-07-20T08:34:57;6.30;;;4.70;;
35847;SDS011;22332;51.954;20.118;2023-07-20T08:38:03;4.80;;;4.00;;
35847;SDS011;22332;51.954;20.118;2023-07-20T08:41:08;5.20;;;4.50;;
35847;SDS011;22332;51.954;20.118;2023-07-20T08:44:14;5.30;;;4.80;;
35847;SDS011;22332;51.954;20.118;2023-07-20T08:47:20;4.70;;;3.90;;
35847;SDS011;22332;51.954;20.118;2023-07-20T08:50:29;4.50;;;3.40;;
35847;SDS011;22332;51.954;20.118;2023-07-20T08:53:35;3.50;;;3.00;;
35847;SDS011;22332;51.954;20.118;2023-07-20T08:56:41;3.30;;;2.90;;
35847;SDS011;22332;51.954;20.118;2023-07-20T08:59:49;4.70;;;2.50;;
35847;SDS011;22332;51.954;20.118;2023-07-20T09:02:58;3.00;;;2.50;;
35847;SDS011;22332;51.954;20.118;2023-07-20T09:06:09;3.00;;;2.50;;
35847;SDS011;22332;51.954;20.118;2023-07-20T09:09:15;3.40;;;2.40;;
35847;SDS011;22332;51.954;20.118;2023-07-20T09:12:21;2.90;;;2.20;;
35847;SDS011;22332;51.954;20.118;2023-07-20T09:15:29;2.90;;;2.30;;
35847;SDS011;22332;51.954;20.118;2023-07-20T09:18:35;3.10;;;2.80;;
35847;SDS011;22332;51.954;20.118;2023-07-20T09:21:41;2.80;;;2.10;;
35847;SDS011;22332;51.954;20.118;2023-07-20T09:24:50;3.40;;;2.40;;
35847;SDS011;22332;51.954;20.118;2023-07-20T09:28:01;2.70;;;2.40;;
35847;SDS011;22332;51.954;20.118;2023-07-20T09:31:11;2.80;;;2.50;;
35847;SDS011;22332;51.954;20.118;2023-07-20T09:34:21;3.00;;;2.30;;
35847;SDS011;22332;51.954;20.118;2023-07-20T09:37:27;2.50;;;2.20;;
35847;SDS011;22332;51.954;20.118;2023-07-20T09:40:37;3.00;;;2.40;;
35847;SDS011;22332;51.954;20.118;2023-07-20T09:43:43;4.20;;;2.60;;
35847;SDS011;22332;51.954;20.118;2023-07-20T09:46:50;4.10;;;2.30;;
35847;SDS011;22332;51.954;20.118;2023-07-20T09:49:59;2.90;;;2.40;;
35847;SDS011;22332;51.954;20.118;2023-07-20T09:53:06;2.50;;;2.30;;
35847;SDS011;22332;51.954;20.118;2023-07-20T09:56:12;3.00;;;2.50;;
35847;SDS011;22332;51.954;20.118;2023-07-20T09:59:20;2.40;;;2.10;;
35847;SDS011;22332;51.954;20.118;2023-07-20T10:02:27;3.00;;;2.50;;
35847;SDS011;22332;51.954;20.118;2023-07-20T10:05:38;2.90;;;2.20;;
35847;SDS011;22332;51.954;20.118;2023-07-20T10:08:47;2.60;;;2.40;;
35847;SDS011;22332;51.954;20.118;2023-07-20T10:11:55;2.50;;;2.20;;
35847;SDS011;22332;51.954;20.118;2023-07-20T10:15:06;3.30;;;2.30;;
35847;SDS011;22332;51.954;20.118;2023-07-20T10:18:22;2.60;;;2.20;;
35847;SDS011;22332;51.954;20.118;2023-07-20T10:21:33;2.30;;;2.10;;
35847;SDS011;22332;51.954;20.118;2023-07-20T10:24:40;2.90;;;2.20;;
35847;SDS011;22332;51.954;20.118;2023-07-20T10:27:48;3.00;;;2.70;;
35847;SDS011;22332;51.954;20.118;2023-07-20T10:30:54;3.50;;;2.50;;
35847;SDS011;22332;51.954;20.118;2023-07-20T10:34:00;5.50;;;2.50;;
35847;SDS011;22332;51.954;20.118;2023-07-20T10:37:07;3.10;;;2.50;;
35847;SDS011;22332;51.954;20.118;2023-07-20T10:40:25;3.30;;;2.50;;
35847;SDS011;22332;51.954;20.118;2023-07-20T10:43:33;3.70;;;2.30;;
35847;SDS011;22332;51.954;20.118;2023-07-20T10:46:44;3.70;;;2.50;;
35847;SDS011;22332;51.954;20.118;2023-07-20T10:49:59;4.50;;;2.70;;
35847;SDS011;22332;51.954;20.118;2023-07-20T10:53:05;3.60;;;2.50;;
35847;SDS011;22332;51.954;20.118;2023-07-20T10:56:19;5.50;;;3.10;;
35847;SDS011;22332;51.954;20.118;2023-07-20T10:59:37;7.90;;;2.90;;
35847;SDS011;22332;51.954;20.118;2023-07-20T11:02:43;5.00;;;3.20;;
35847;SDS011;22332;51.954;20.118;2023-07-20T11:05:50;4.40;;;3.20;;
35847;SDS011;22332;51.954;20.118;2023-07-20T11:08:56;3.80;;;3.00;;
35847;SDS011;22332;51.954;20.118;2023-07-20T11:12:10;3.30;;;1.80;;
35847;SDS011;22332;51.954;20.118;2023-07-20T11:15:17;2.20;;;1.90;;
35847;SDS011;22332;51.954;20.118;2023-07-20T11:18:23;2.70;;;2.10;;
35847;SDS011;22332;51.954;20.118;2023-07-20T11:21:30;3.50;;;1.90;;
35847;SDS011;22332;51.954;20.118;2023-07-20T11:24:42;2.90;;;2.00;;
35847;SDS011;22332;51.954;20.118;2023-07-20T11:27:47;4.20;;;2.00;;
35847;SDS011;22332;51.954;20.118;2023-07-20T11:30:53;3.70;;;1.90;;
35847;SDS011;22332;51.954;20.118;2023-07-20T11:33:58;3.00;;;1.60;;
35847;SDS011;22332;51.954;20.118;2023-07-20T11:37:05;1.50;;;1.40;;
35847;SDS011;22332;51.954;20.118;2023-07-20T11:40:12;2.00;;;1.40;;
35847;SDS011;22332;51.954;20.118;2023-07-20T11:43:19;2.10;;;1.60;;
35847;SDS011;22332;51.954;20.118;2023-07-20T11:46:25;1.50;;;1.30;;
35847;SDS011;22332;51.954;20.118;2023-07-20T11:49:35;4.00;;;1.60;;
35847;SDS011;22332;51.954;20.118;2023-07-20T11:52:43;2.10;;;1.40;;
35847;SDS011;22332;51.954;20.118;2023-07-20T11:55:49;4.30;;;1.50;;
35847;SDS011;22332;51.954;20.118;2023-07-20T11:58:58;2.30;;;1.30;;
35847;SDS011;22332;51.954;20.118;2023-07-20T12:05:11;1.50;;;1.40;;
35847;SDS011;22332;51.954;20.118;2023-07-20T12:08:17;3.60;;;1.40;;
35847;SDS011;22332;51.954;20.118;2023-07-20T12:11:33;1.50;;;1.30;;
35847;SDS011;22332;51.954;20.118;2023-07-20T12:14:39;1.50;;;1.20;;
35847;SDS011;22332;51.954;20.118;2023-07-20T12:17:45;2.20;;;1.40;;
35847;SDS011;22332;51.954;20.118;2023-07-20T12:20:59;1.70;;;1.50;;
35847;SDS011;22332;51.954;20.118;2023-07-20T12:27:12;2.80;;;1.70;;
35847;SDS011;22332;51.954;20.118;2023-07-20T12:30:20;2.90;;;2.40;;
35847;SDS011;22332;51.954;20.118;2023-07-20T12:33:25;3.10;;;2.30;;
35847;SDS011;22332;51.954;20.118;2023-07-20T12:36:31;3.80;;;2.40;;
35847;SDS011;22332;51.954;20.118;2023-07-20T12:39:37;3.40;;;1.90;;
35847;SDS011;22332;51.954;20.118;2023-07-20T12:42:43;2.40;;;2.10;;
35847;SDS011;22332;51.954;20.118;2023-07-20T12:45:49;2.30;;;1.90;;
35847;SDS011;22332;51.954;20.118;2023-07-20T12:48:55;3.00;;;2.40;;
35847;SDS011;22332;51.954;20.118;2023-07-20T12:52:01;3.20;;;2.10;;
35847;SDS011;22332;51.954;20.118;2023-07-20T12:55:07;3.20;;;2.50;;
35847;SDS011;22332;51.954;20.118;2023-07-20T12:58:13;3.00;;;2.70;;
35847;SDS011;22332;51.954;20.118;2023-07-20T13:01:19;3.20;;;2.30;;
35847;SDS011;22332;51.954;20.118;2023-07-20T13:04:25;2.00;;;1.60;;
35847;SDS011;22332;51.954;20.118;2023-07-20T13:07:31;2.80;;;2.60;;
35847;SDS011;22332;51.954;20.118;2023-07-20T13:10:39;2.60;;;2.40;;
35847;SDS011;22332;51.954;20.118;2023-07-20T13:13:44;3.50;;;1.90;;
35847;SDS011;22332;51.954;20.118;2023-07-20T13:16:50;2.30;;;1.80;;
35847;SDS011;22332;51.954;20.118;2023-07-20T13:19:55;2.80;;;2.00;;
35847;SDS011;22332;51.954;20.118;2023-07-20T13:23:01;2.00;;;1.80;;
35847;SDS011;22332;51.954;20.118;2023-07-20T13:26:07;4.10;;;1.80;;
35847;SDS011;22332;51.954;20.118;2023-07-20T13:29:12;2.20;;;2.00;;
35847;SDS011;22332;51.954;20.118;2023-07-20T13:32:18;2.30;;;2.10;;
35847;SDS011;22332;51.954;20.118;2023-07-20T13:35:24;2.90;;;2.50;;
35847;SDS011;22332;51.954;20.118;2023-07-20T13:38:29;2.30;;;2.10;;
35847;SDS011;22332;51.954;20.118;2023-07-20T13:41:34;3.80;;;1.90;;
35847;SDS011;22332;51.954;20.118;2023-07-20T13:44:40;4.20;;;2.10;;
35847;SDS011;22332;51.954;20.118;2023-07-20T13:47:46;2.70;;;2.00;;
35847;SDS011;22332;51.954;20.118;2023-07-20T13:50:51;2.40;;;2.20;;
35847;SDS011;22332;51.954;20.118;2023-07-20T13:53:58;2.50;;;2.00;;
35847;SDS011;22332;51.954;20.118;2023-07-20T13:57:04;3.00;;;2.20;;
35847;SDS011;22332;51.954;20.118;2023-07-20T14:00:10;4.30;;;2.10;;
35847;SDS011;22332;51.954;20.118;2023-07-20T14:03:17;2.30;;;2.10;;
35847;SDS011;22332;51.954;20.118;2023-07-20T14:06:22;2.80;;;2.30;;
35847;SDS011;22332;51.954;20.118;2023-07-20T14:09:28;3.50;;;2.10;;
35847;SDS011;22332;51.954;20.118;2023-07-20T14:12:34;2.90;;;2.40;;
35847;SDS011;22332;51.954;20.118;2023-07-20T14:15:39;2.40;;;2.10;;
35847;SDS011;22332;51.954;20.118;2023-07-20T14:18:45;3.60;;;2.10;;
35847;SDS011;22332;51.954;20.118;2023-07-20T14:21:51;2.50;;;2.00;;
35847;SDS011;22332;51.954;20.118;2023-07-20T14:24:57;2.20;;;2.00;;
35847;SDS011;22332;51.954;20.118;2023-07-20T14:28:03;2.70;;;1.80;;
35847;SDS011;22332;51.954;20.118;2023-07-20T14:31:08;2.10;;;1.80;;
35847;SDS011;22332;51.954;20.118;2023-07-20T14:34:15;2.50;;;2.00;;
35847;SDS011;22332;51.954;20.118;2023-07-20T14:37:20;2.20;;;2.00;;
35847;SDS011;22332;51.954;20.118;2023-07-20T14:40:26;3.30;;;1.90;;
35847;SDS011;22332;51.954;20.118;2023-07-20T14:43:32;2.50;;;1.90;;
35847;SDS011;22332;51.954;20.118;2023-07-20T14:46:38;2.40;;;2.00;;
35847;SDS011;22332;51.954;20.118;2023-07-20T14:49:43;2.20;;;2.00;;
35847;SDS011;22332;51.954;20.118;2023-07-20T14:52:49;2.60;;;2.20;;
35847;SDS011;22332;51.954;20.118;2023-07-20T14:55:59;2.50;;;1.90;;
35847;SDS011;22332;51.954;20.118;2023-07-20T14:59:05;2.10;;;1.90;;
35847;SDS011;22332;51.954;20.118;2023-07-20T15:02:11;2.50;;;1.80;;
35847;SDS011;22332;51.954;20.118;2023-07-20T15:05:21;2.50;;;1.90;;
35847;SDS011;22332;51.954;20.118;2023-07-20T15:08:29;2.80;;;1.90;;
35847;SDS011;22332;51.954;20.118;2023-07-20T15:11:35;2.40;;;1.70;;
35847;SDS011;22332;51.954;20.118;2023-07-20T15:14:42;2.20;;;1.60;;
35847;SDS011;22332;51.954;20.118;2023-07-20T15:17:47;1.80;;;1.60;;
35847;SDS011;22332;51.954;20.118;2023-07-20T15:20:53;1.60;;;1.50;;
35847;SDS011;22332;51.954;20.118;2023-07-20T15:23:59;1.60;;;1.50;;
35847;SDS011;22332;51.954;20.118;2023-07-20T15:27:05;2.10;;;1.60;;
35847;SDS011;22332;51.954;20.118;2023-07-20T15:30:11;1.90;;;1.70;;
35847;SDS011;22332;51.954;20.118;2023-07-20T15:33:18;1.60;;;1.50;;
35847;SDS011;22332;51.954;20.118;2023-07-20T15:36:23;1.60;;;1.50;;
35847;SDS011;22332;51.954;20.118;2023-07-20T15:39:29;1.50;;;1.40;;
35847;SDS011;22332;51.954;20.118;2023-07-20T15:42:34;2.20;;;1.80;;
35847;SDS011;22332;51.954;20.118;2023-07-20T15:45:40;2.40;;;1.70;;
35847;SDS011;22332;51.954;20.118;2023-07-20T15:48:49;2.00;;;1.70;;
35847;SDS011;22332;51.954;20.118;2023-07-20T15:51:55;1.70;;;1.60;;
35847;SDS011;22332;51.954;20.118;2023-07-20T15:55:00;1.80;;;1.70;;
35847;SDS011;22332;51.954;20.118;2023-07-20T15:58:07;1.70;;;1.50;;
35847;SDS011;22332;51.954;20.118;2023-07-20T16:01:12;2.20;;;1.50;;
35847;SDS011;22332;51.954;20.118;2023-07-20T16:04:18;2.20;;;1.60;;
35847;SDS011;22332;51.954;20.118;2023-07-20T16:07:24;3.20;;;1.50;;
35847;SDS011;22332;51.954;20.118;2023-07-20T16:10:29;2.20;;;1.70;;
35847;SDS011;22332;51.954;20.118;2023-07-20T16:13:34;1.50;;;1.40;;
35847;SDS011;22332;51.954;20.118;2023-07-20T16:16:40;1.20;;;1.10;;
35847;SDS011;22332;51.954;20.118;2023-07-20T16:19:46;2.90;;;0.80;;
35847;SDS011;22332;51.954;20.118;2023-07-20T16:22:52;1.60;;;1.10;;
35847;SDS011;22332;51.954;20.118;2023-07-20T16:25:57;2.40;;;1.80;;
35847;SDS011;22332;51.954;20.118;2023-07-20T16:29:03;3.30;;;1.20;;
35847;SDS011;22332;51.954;20.118;2023-07-20T16:32:09;2.50;;;1.20;;
35847;SDS011;22332;51.954;20.118;2023-07-20T16:35:14;1.40;;;1.20;;
35847;SDS011;22332;51.954;20.118;2023-07-20T16:38:21;1.40;;;1.10;;
35847;SDS011;22332;51.954;20.118;2023-07-20T16:41:26;3.90;;;1.10;;
35847;SDS011;22332;51.954;20.118;2023-07-20T16:44:32;1.40;;;1.00;;
35847;SDS011;22332;51.954;20.118;2023-07-20T16:47:38;1.90;;;1.20;;
35847;SDS011;22332;51.954;20.118;2023-07-20T16:50:43;1.20;;;1.10;;
35847;SDS011;22332;51.954;20.118;2023-07-20T16:53:49;1.30;;;1.10;;
35847;SDS011;22332;51.954;20.118;2023-07-20T16:56:55;1.00;;;0.90;;
35847;SDS011;22332;51.954;20.118;2023-07-20T17:00:00;1.60;;;1.00;;
35847;SDS011;22332;51.954;20.118;2023-07-20T17:03:09;1.80;;;1.10;;
35847;SDS011;22332;51.954;20.118;2023-07-20T17:06:15;1.20;;;1.00;;
35847;SDS011;22332;51.954;20.118;2023-07-20T17:09:21;1.60;;;0.90;;
35847;SDS011;22332;51.954;20.118;2023-07-20T17:12:26;2.10;;;1.10;;
35847;SDS011;22332;51.954;20.118;2023-07-20T17:15:32;1.10;;;0.90;;
35847;SDS011;22332;51.954;20.118;2023-07-20T17:18:38;1.10;;;1.00;;
35847;SDS011;22332;51.954;20.118;2023-07-20T17:21:44;1.10;;;1.00;;
35847;SDS011;22332;51.954;20.118;2023-07-20T17:24:50;2.10;;;1.20;;
35847;SDS011;22332;51.954;20.118;2023-07-20T17:27:55;1.20;;;1.10;;
35847;SDS011;22332;51.954;20.118;2023-07-20T17:31:01;1.70;;;1.20;;
35847;SDS011;22332;51.954;20.118;2023-07-20T17:34:07;1.20;;;1.10;;
35847;SDS011;22332;51.954;20.118;2023-07-20T17:37:13;1.50;;;1.20;;
35847;SDS011;22332;51.954;20.118;2023-07-20T17:40:23;1.20;;;1.00;;
35847;SDS011;22332;51.954;20.118;2023-07-20T17:43:29;3.80;;;1.50;;
35847;SDS011;22332;51.954;20.118;2023-07-20T17:46:34;2.40;;;1.20;;
35847;SDS011;22332;51.954;20.118;2023-07-20T17:49:40;7.40;;;1.30;;
35847;SDS011;22332;51.954;20.118;2023-07-20T17:52:46;2.30;;;1.20;;
35847;SDS011;22332;51.954;20.118;2023-07-20T17:55:51;2.50;;;1.20;;
35847;SDS011;22332;51.954;20.118;2023-07-20T17:58:58;2.10;;;1.20;;
35847;SDS011;22332;51.954;20.118;2023-07-20T18:02:04;3.00;;;1.10;;
35847;SDS011;22332;51.954;20.118;2023-07-20T18:05:10;1.30;;;1.10;;
35847;SDS011;22332;51.954;20.118;2023-07-20T18:08:16;1.70;;;0.90;;
35847;SDS011;22332;51.954;20.118;2023-07-20T18:11:22;2.40;;;1.20;;
35847;SDS011;22332;51.954;20.118;2023-07-20T18:14:27;1.90;;;1.20;;
35847;SDS011;22332;51.954;20.118;2023-07-20T18:17:34;1.30;;;1.20;;
35847;SDS011;22332;51.954;20.118;2023-07-20T18:20:40;2.00;;;1.10;;
35847;SDS011;22332;51.954;20.118;2023-07-20T18:23:46;3.20;;;1.70;;
35847;SDS011;22332;51.954;20.118;2023-07-20T18:26:53;3.00;;;1.40;;
35847;SDS011;22332;51.954;20.118;2023-07-20T18:29:59;2.40;;;1.70;;
35847;SDS011;22332;51.954;20.118;2023-07-20T18:33:04;1.70;;;1.20;;